createdAt,value
2023-03-12T00:02:17.317Z,1.65
2023-03-12T00:04:44.701Z,1.65
2023-03-12T00:07:11.992Z,1.49
2023-03-12T00:09:43.609Z,1.49
2023-03-12T00:12:10.839Z,1.39
2023-03-12T00:14:40.249Z,1.31
2023-03-12T00:17:08.758Z,1.45
2023-03-12T00:19:37.915Z,1.33
2023-03-12T00:22:08.235Z,1.21
2023-03-12T00:24:35.733Z,1.33
2023-03-12T00:27:02.838Z,1.39
2023-03-12T00:29:30.205Z,1.41
2023-03-12T00:32:00.349Z,1.41
2023-03-12T00:34:27.682Z,1.44
2023-03-12T00:36:57.635Z,1.36
2023-03-12T00:39:24.795Z,1.33
2023-03-12T00:41:51.977Z,1.31
2023-03-12T00:44:21.862Z,1.23
2023-03-12T00:46:53.218Z,1.32
2023-03-12T00:49:23.100Z,1.22
2023-03-12T00:51:50.295Z,1.35
2023-03-12T00:54:20.090Z,1.42
2023-03-12T00:56:49.929Z,1.27
2023-03-12T00:59:17.198Z,1.36
2023-03-12T01:01:44.406Z,1.20
2023-03-12T01:04:12.239Z,1.27
2023-03-12T01:06:39.290Z,1.31
2023-03-12T01:09:09.267Z,1.26
2023-03-12T01:11:38.365Z,1.27
2023-03-12T01:14:08.551Z,1.48
2023-03-12T01:16:35.797Z,1.42
2023-03-12T01:19:04.377Z,1.29
2023-03-12T01:21:31.786Z,1.44
2023-03-12T01:23:59.317Z,1.47
2023-03-12T01:26:26.736Z,1.41
2023-03-12T01:28:53.830Z,1.53
2023-03-12T01:31:21.188Z,1.24
2023-03-12T01:33:51.196Z,1.34
2023-03-12T01:36:27.721Z,1.32
2023-03-12T01:38:57.764Z,1.42
2023-03-12T01:41:28.158Z,1.33
2023-03-12T01:43:55.703Z,1.20
2023-03-12T01:46:24.789Z,1.57
2023-03-12T01:49:05.514Z,1.52
2023-03-12T01:51:56.376Z,1.62
2023-03-12T01:54:35.849Z,1.46
2023-03-12T01:57:06.887Z,1.70
2023-03-12T01:59:42.535Z,1.80
2023-03-12T02:02:10.611Z,1.87
2023-03-12T02:04:39.910Z,1.90
2023-03-12T02:07:15.265Z,1.98
2023-03-12T02:09:48.519Z,2.11
2023-03-12T02:12:16.795Z,2.21
2023-03-12T02:14:44.400Z,2.20
2023-03-12T02:17:11.861Z,2.22
2023-03-12T02:19:42.034Z,2.09
2023-03-12T02:22:11.579Z,2.10
2023-03-12T02:25:06.551Z,2.02
2023-03-12T02:27:37.327Z,2.18
2023-03-12T02:30:05.585Z,2.41
2023-03-12T02:32:39.682Z,2.49
2023-03-12T02:35:07.603Z,2.42
2023-03-12T02:37:34.649Z,2.36
2023-03-12T02:40:10.674Z,2.40
2023-03-12T02:42:37.881Z,2.27
2023-03-12T02:45:05.772Z,2.08
2023-03-12T02:47:33.079Z,1.91
2023-03-12T02:50:00.155Z,1.98
2023-03-12T02:52:27.289Z,2.07
2023-03-12T02:54:54.408Z,2.02
2023-03-12T02:57:21.698Z,1.94
2023-03-12T02:59:48.813Z,1.98
2023-03-12T03:02:15.930Z,2.28
2023-03-12T03:04:43.374Z,2.22
2023-03-12T03:07:10.376Z,2.27
2023-03-12T03:09:37.579Z,2.32
2023-03-12T03:12:05.299Z,2.30
2023-03-12T03:14:34.256Z,2.34
2023-03-12T03:17:01.394Z,2.38
2023-03-12T03:19:28.733Z,2.22
2023-03-12T03:21:55.769Z,2.12
2023-03-12T03:24:22.805Z,1.52
2023-03-12T03:26:49.857Z,1.58
2023-03-12T03:29:17.121Z,1.75
2023-03-12T03:31:44.411Z,1.53
2023-03-12T03:34:12.486Z,1.45
2023-03-12T03:36:39.520Z,1.57
2023-03-12T03:39:11.465Z,1.51
2023-03-12T03:41:38.696Z,1.70
2023-03-12T03:44:07.743Z,1.92
2023-03-12T03:46:37.037Z,1.67
2023-03-12T03:49:07.422Z,2.08
2023-03-12T03:51:35.571Z,2.06
2023-03-12T03:54:07.140Z,2.30
2023-03-12T03:56:34.634Z,2.26
2023-03-12T03:59:04.158Z,2.39
2023-03-12T04:01:33.470Z,2.45
2023-03-12T04:04:01.835Z,2.67
2023-03-12T04:06:31.267Z,2.72
2023-03-12T04:08:59.153Z,2.62
2023-03-12T04:11:28.105Z,2.81
2023-03-12T04:13:57.818Z,2.81
2023-03-12T04:16:28.121Z,2.51
2023-03-12T04:18:55.819Z,2.49
2023-03-12T04:21:24.000Z,2.40
2023-03-12T04:23:52.009Z,2.23
2023-03-12T04:26:21.969Z,2.04
2023-03-12T04:28:49.289Z,2.22
2023-03-12T04:31:16.396Z,2.62
2023-03-12T04:33:50.443Z,2.74
2023-03-12T04:36:19.370Z,2.67
2023-03-12T04:38:49.276Z,2.53
2023-03-12T04:41:19.859Z,2.92
2023-03-12T04:43:55.126Z,2.60
2023-03-12T04:46:22.712Z,2.63
2023-03-12T04:48:49.825Z,2.76
2023-03-12T04:51:17.962Z,2.68
2023-03-12T04:53:45.171Z,2.87
2023-03-12T04:56:13.586Z,3.04
2023-03-12T04:58:42.632Z,3.06
2023-03-12T05:01:28.566Z,3.27
2023-03-12T05:03:56.128Z,3.30
2023-03-12T05:06:24.198Z,3.32
2023-03-12T05:08:52.400Z,3.16
2023-03-12T05:11:21.133Z,2.96
2023-03-12T05:13:48.765Z,2.87
2023-03-12T05:16:16.773Z,3.09
2023-03-12T05:18:44.740Z,2.93
2023-03-12T05:21:16.422Z,2.96
2023-03-12T05:23:45.035Z,2.91
2023-03-12T05:26:23.793Z,2.83
2023-03-12T05:28:54.698Z,2.99
2023-03-12T05:31:24.413Z,3.06
2023-03-12T05:33:53.014Z,2.91
2023-03-12T05:36:21.727Z,2.61
2023-03-12T05:38:49.320Z,2.55
2023-03-12T05:41:28.333Z,2.90
2023-03-12T05:43:59.718Z,3.31
2023-03-12T05:46:29.028Z,3.30
2023-03-12T05:48:56.427Z,3.32
2023-03-12T05:51:23.744Z,3.42
2023-03-12T05:53:51.242Z,3.40
2023-03-12T05:56:18.918Z,3.40
2023-03-12T05:58:49.468Z,3.16
2023-03-12T06:01:26.244Z,3.14
2023-03-12T06:03:55.690Z,3.06
2023-03-12T06:06:24.681Z,3.08
2023-03-12T06:08:52.424Z,3.10
2023-03-12T06:11:19.685Z,3.29
2023-03-12T06:13:48.236Z,3.41
2023-03-12T06:16:27.301Z,2.94
2023-03-12T06:19:00.020Z,2.91
2023-03-12T06:21:31.693Z,3.02
2023-03-12T06:24:00.379Z,3.14
2023-03-12T06:26:38.105Z,3.14
2023-03-12T06:29:05.163Z,3.28
2023-03-12T06:31:32.399Z,3.22
2023-03-12T06:33:59.624Z,3.08
2023-03-12T06:36:26.713Z,3.13
2023-03-12T06:38:56.965Z,3.02
2023-03-12T06:41:24.400Z,2.88
2023-03-12T06:43:52.642Z,3.09
2023-03-12T06:46:22.016Z,2.93
2023-03-12T06:48:49.427Z,2.83
2023-03-12T06:51:17.712Z,2.93
2023-03-12T06:53:46.397Z,3.02
2023-03-12T06:56:14.613Z,3.01
2023-03-12T06:58:42.033Z,2.95
2023-03-12T07:01:09.576Z,3.25
2023-03-12T07:03:36.693Z,3.45
2023-03-12T07:06:04.783Z,3.56
2023-03-12T07:08:31.975Z,2.98
2023-03-12T07:11:01.859Z,2.68
2023-03-12T07:13:30.269Z,2.98
2023-03-12T07:15:57.589Z,3.32
2023-03-12T07:18:24.864Z,3.19
2023-03-12T07:20:53.183Z,3.32
2023-03-12T07:23:20.763Z,3.59
2023-03-12T07:25:48.090Z,3.51
2023-03-12T07:28:16.534Z,2.53
2023-03-12T07:30:47.830Z,2.23
2023-03-12T07:33:15.135Z,2.89
2023-03-12T07:35:42.479Z,2.71
2023-03-12T07:38:10.030Z,2.89
2023-03-12T07:40:37.250Z,3.08
2023-03-12T07:43:11.034Z,3.20
2023-03-12T07:45:41.090Z,3.11
2023-03-12T07:48:08.696Z,3.32
2023-03-12T07:50:36.606Z,3.75
2023-03-12T07:53:05.329Z,4.11
2023-03-12T07:55:34.448Z,4.21
2023-03-12T07:58:02.313Z,4.26
2023-03-12T08:00:30.636Z,4.00
2023-03-12T08:02:58.016Z,4.10
2023-03-12T08:05:27.056Z,4.19
2023-03-12T08:07:54.425Z,4.74
2023-03-12T08:10:22.588Z,4.87
2023-03-12T08:12:50.160Z,4.93
2023-03-12T08:15:17.345Z,4.90
2023-03-12T08:17:44.678Z,5.11
2023-03-12T08:20:12.879Z,5.30
2023-03-12T08:22:41.822Z,4.54
2023-03-12T08:25:09.927Z,4.90
2023-03-12T08:27:37.072Z,5.24
2023-03-12T08:30:06.651Z,5.47
2023-03-12T08:32:34.451Z,5.71
2023-03-12T08:35:02.063Z,5.78
2023-03-12T08:37:29.152Z,5.99
2023-03-12T08:39:57.474Z,5.18
2023-03-12T08:42:24.531Z,4.81
2023-03-12T08:44:51.594Z,4.89
2023-03-12T08:47:18.582Z,5.40
2023-03-12T08:49:45.732Z,5.43
2023-03-12T08:52:12.902Z,5.54
2023-03-12T08:54:39.997Z,5.81
2023-03-12T08:57:07.320Z,5.87
2023-03-12T08:59:34.519Z,6.21
2023-03-12T09:02:01.962Z,6.12
2023-03-12T09:04:29.150Z,6.10
2023-03-12T09:06:56.307Z,6.40
2023-03-12T09:09:23.381Z,6.55
2023-03-12T09:11:50.423Z,6.43
2023-03-12T09:17:04.698Z,5.88
2023-03-12T09:19:32.136Z,6.12
2023-03-12T09:21:59.285Z,6.27
2023-03-12T09:24:26.525Z,6.58
2023-03-12T09:26:53.608Z,6.41
2023-03-12T09:29:21.592Z,6.77
2023-03-12T09:31:48.684Z,7.17
2023-03-12T09:34:15.696Z,7.20
2023-03-12T09:36:42.878Z,7.52
2023-03-12T09:39:10.117Z,6.99
2023-03-12T09:41:41.214Z,7.05
2023-03-12T09:44:34.721Z,6.63
2023-03-12T09:47:08.413Z,7.21
2023-03-12T09:49:41.905Z,7.53
2023-03-12T09:52:24.524Z,7.84
2023-03-12T09:55:20.425Z,8.10
2023-03-12T09:57:51.221Z,8.48
2023-03-12T10:00:24.654Z,8.74
2023-03-12T10:02:53.742Z,8.95
2023-03-12T10:05:23.881Z,9.01
2023-03-12T10:08:31.438Z,9.31
2023-03-12T10:11:19.260Z,9.59
2023-03-12T10:14:08.719Z,9.67
2023-03-12T10:16:52.746Z,9.71
2023-03-12T10:19:44.735Z,10.15
2023-03-12T10:22:52.615Z,10.27
2023-03-12T10:25:41.820Z,10.76
2023-03-12T10:28:34.608Z,10.52
2023-03-12T10:31:20.232Z,11.15
2023-03-12T10:33:56.390Z,11.23
2023-03-12T10:36:46.793Z,11.47
2023-03-12T10:39:19.956Z,11.16
2023-03-12T10:41:49.154Z,11.00
2023-03-12T10:44:28.162Z,10.49
2023-03-12T10:47:37.654Z,11.01
2023-03-12T10:50:19.444Z,10.74
2023-03-12T10:52:50.910Z,10.80
2023-03-12T10:55:29.709Z,10.70
2023-03-12T10:57:57.236Z,10.41
2023-03-12T11:00:28.669Z,10.32
2023-03-12T11:03:03.691Z,10.55
2023-03-12T11:05:32.162Z,10.69
2023-03-12T11:08:01.786Z,10.88
2023-03-12T11:10:45.982Z,11.49
2023-03-12T11:13:34.336Z,11.58
2023-03-12T11:16:04.151Z,11.99
2023-03-12T11:18:37.762Z,12.56
2023-03-12T11:21:08.717Z,12.63
2023-03-12T11:23:59.767Z,13.02
2023-03-12T11:26:51.820Z,13.49
2023-03-12T11:29:43.066Z,13.83
2023-03-12T11:32:39.103Z,14.42
2023-03-12T11:35:18.290Z,14.54
2023-03-12T11:38:18.343Z,15.09
2023-03-12T11:41:20.366Z,15.35
2023-03-12T11:44:13.498Z,15.64
2023-03-12T11:47:14.711Z,15.98
2023-03-12T11:50:28.008Z,15.78
2023-03-12T11:53:27.347Z,16.17
2023-03-12T11:56:24.666Z,16.13
2023-03-12T11:58:52.094Z,16.39
2023-03-12T12:01:42.458Z,16.38
2023-03-12T12:04:43.945Z,16.77
2023-03-12T12:07:33.573Z,16.68
2023-03-12T12:10:01.012Z,16.98
2023-03-12T12:13:18.251Z,16.46
2023-03-12T12:16:00.803Z,16.65
2023-03-12T12:19:25.191Z,16.78
2023-03-12T12:22:36.687Z,16.56
2023-03-12T12:25:33.153Z,17.39
2023-03-12T12:28:21.448Z,18.39
2023-03-12T12:31:25.769Z,18.72
2023-03-12T12:34:36.821Z,18.60
2023-03-12T12:37:39.027Z,20.22
2023-03-12T12:40:31.464Z,19.56
2023-03-12T12:43:06.027Z,20.73
2023-03-12T12:45:33.120Z,20.04
2023-03-12T12:48:11.550Z,19.39
2023-03-12T12:50:40.042Z,18.91
2023-03-12T12:53:28.230Z,18.26
2023-03-12T12:56:31.385Z,17.96
2023-03-12T12:59:33.267Z,16.90
2023-03-12T13:02:02.781Z,16.60
2023-03-12T13:04:38.879Z,16.68
2023-03-12T13:07:12.142Z,16.27
2023-03-12T13:09:53.700Z,16.49
2023-03-12T13:12:20.740Z,16.37
2023-03-12T13:14:49.529Z,15.97
2023-03-12T13:17:21.567Z,15.60
2023-03-12T13:20:00.898Z,15.60
2023-03-12T13:23:00.688Z,15.34
2023-03-12T13:25:42.003Z,15.49
2023-03-12T13:28:32.389Z,15.26
2023-03-12T13:31:25.759Z,15.14
2023-03-12T13:33:57.143Z,13.47
2023-03-12T13:36:28.488Z,12.99
2023-03-12T13:39:37.261Z,13.15
2023-03-12T13:42:22.863Z,13.71
2023-03-12T13:44:52.236Z,13.94
2023-03-12T13:47:42.348Z,14.07
2023-03-12T13:50:15.708Z,14.00
2023-03-12T13:52:51.629Z,14.10
2023-03-12T13:55:28.702Z,14.30
2023-03-12T13:58:07.933Z,14.40
2023-03-12T14:00:45.004Z,14.57
2023-03-12T14:03:20.369Z,15.68
2023-03-12T14:05:57.794Z,17.68
2023-03-12T14:09:04.972Z,17.71
2023-03-12T14:12:01.083Z,17.21
2023-03-12T14:14:50.676Z,17.46
2023-03-12T14:17:24.085Z,17.61
2023-03-12T14:19:59.295Z,17.40
2023-03-12T14:22:33.741Z,17.04
2023-03-12T14:25:13.979Z,16.14
2023-03-12T14:27:45.409Z,15.80
2023-03-12T14:30:19.884Z,15.84
2023-03-12T14:32:48.138Z,15.94
2023-03-12T14:35:25.788Z,15.93
2023-03-12T14:38:15.576Z,16.97
2023-03-12T14:41:13.364Z,19.25
2023-03-12T14:43:43.229Z,18.34
2023-03-12T14:46:15.439Z,18.36
2023-03-12T14:48:42.618Z,17.61
2023-03-12T14:51:24.241Z,17.70
2023-03-12T14:53:52.656Z,18.22
2023-03-12T14:56:30.624Z,19.27
2023-03-12T14:59:01.652Z,19.72
2023-03-12T15:01:33.895Z,20.45
2023-03-12T15:04:16.885Z,20.66
2023-03-12T15:06:54.432Z,20.29
2023-03-12T15:09:26.946Z,19.48
2023-03-12T15:12:04.727Z,20.39
2023-03-12T15:15:01.767Z,20.39
2023-03-12T15:17:31.319Z,20.49
2023-03-12T15:19:58.736Z,20.53
2023-03-12T15:22:27.832Z,21.07
2023-03-12T15:24:55.078Z,21.10
2023-03-12T15:27:25.190Z,20.19
2023-03-12T15:29:52.857Z,20.06
2023-03-12T15:32:24.965Z,19.45
2023-03-12T15:34:54.579Z,19.69
2023-03-12T15:37:40.979Z,19.94
2023-03-12T15:40:22.136Z,20.11
2023-03-12T15:42:49.865Z,18.97
2023-03-12T15:45:41.591Z,18.09
2023-03-12T15:48:30.244Z,16.79
2023-03-12T15:50:58.132Z,16.22
2023-03-12T15:53:31.024Z,16.02
2023-03-12T15:56:11.745Z,16.12
2023-03-12T15:58:41.679Z,16.08
2023-03-12T16:01:17.721Z,15.92
2023-03-12T16:03:45.761Z,15.49
2023-03-12T16:06:18.827Z,15.35
2023-03-12T16:09:00.187Z,15.49
2023-03-12T16:11:31.728Z,15.36
2023-03-12T16:14:05.234Z,15.35
2023-03-12T16:16:32.517Z,15.32
2023-03-12T16:18:59.693Z,15.16
2023-03-12T16:21:27.108Z,15.12
2023-03-12T16:23:54.173Z,15.37
2023-03-12T16:26:22.427Z,15.43
2023-03-12T16:28:49.572Z,15.42
2023-03-12T16:31:16.879Z,15.52
2023-03-12T16:33:44.878Z,15.37
2023-03-12T16:36:15.816Z,15.12
2023-03-12T16:38:44.144Z,14.77
2023-03-12T16:41:18.192Z,14.74
2023-03-12T16:43:53.852Z,14.70
2023-03-12T16:46:23.058Z,14.67
2023-03-12T16:48:53.660Z,14.67
2023-03-12T16:51:21.521Z,14.58
2023-03-12T16:53:55.825Z,14.71
2023-03-12T16:56:29.060Z,15.00
2023-03-12T16:59:04.864Z,15.09
2023-03-12T17:01:32.069Z,14.74
2023-03-12T17:03:59.149Z,14.78
2023-03-12T17:06:27.426Z,14.73
2023-03-12T17:08:55.210Z,14.44
2023-03-12T17:11:28.659Z,14.62
2023-03-12T17:13:59.717Z,14.69
2023-03-12T17:16:27.221Z,14.60
2023-03-12T17:18:55.506Z,14.68
2023-03-12T17:21:23.029Z,14.63
2023-03-12T17:23:50.703Z,14.56
2023-03-12T17:26:19.114Z,14.58
2023-03-12T17:28:46.149Z,14.46
2023-03-12T17:31:13.250Z,14.47
2023-03-12T17:33:40.379Z,14.49
2023-03-12T17:36:09.527Z,13.98
2023-03-12T17:38:37.417Z,13.99
2023-03-12T17:41:09.381Z,14.10
2023-03-12T17:43:39.481Z,14.06
2023-03-12T17:46:08.865Z,13.70
2023-03-12T17:48:35.999Z,13.44
2023-03-12T17:51:08.360Z,13.07
2023-03-12T17:53:36.381Z,13.09
2023-03-12T17:56:03.739Z,12.51
2023-03-12T17:58:30.825Z,12.54
2023-03-12T18:01:00.906Z,12.86
2023-03-12T18:03:28.033Z,13.09
2023-03-12T18:05:55.262Z,13.23
2023-03-12T18:08:22.348Z,13.10
2023-03-12T18:10:49.560Z,13.23
2023-03-12T18:13:16.577Z,13.29
2023-03-12T18:15:52.438Z,13.38
2023-03-12T18:18:20.082Z,13.29
2023-03-12T18:20:49.071Z,13.34
2023-03-12T18:23:16.695Z,13.18
2023-03-12T18:25:45.512Z,13.35
2023-03-12T18:28:13.960Z,13.35
2023-03-12T18:30:41.261Z,13.19
2023-03-12T18:33:08.265Z,13.51
2023-03-12T18:35:35.371Z,13.33
2023-03-12T18:38:02.877Z,13.51
2023-03-12T18:40:30.237Z,13.46
2023-03-12T18:42:58.774Z,13.39
2023-03-12T18:45:27.204Z,13.48
2023-03-12T18:47:54.318Z,13.47
2023-03-12T18:50:21.609Z,13.45
2023-03-12T18:52:48.744Z,13.46
2023-03-12T18:55:15.933Z,13.17
2023-03-12T18:57:44.358Z,13.17
2023-03-12T19:00:15.017Z,12.74
2023-03-12T19:02:42.368Z,12.39
2023-03-12T19:05:13.367Z,12.82
2023-03-12T19:07:40.889Z,12.95
2023-03-12T19:10:10.085Z,12.93
2023-03-12T19:12:50.758Z,13.00
2023-03-12T19:15:24.070Z,12.75
2023-03-12T19:17:51.870Z,12.90
2023-03-12T19:20:19.130Z,12.93
2023-03-12T19:22:46.546Z,12.82
2023-03-12T19:25:14.186Z,12.73
2023-03-12T19:27:41.641Z,12.79
2023-03-12T19:30:09.759Z,12.83
2023-03-12T19:32:43.736Z,12.33
2023-03-12T19:35:14.385Z,12.49
2023-03-12T19:37:42.730Z,12.10
2023-03-12T19:40:11.005Z,12.03
2023-03-12T19:42:38.276Z,12.26
2023-03-12T19:45:07.888Z,12.29
2023-03-12T19:47:35.135Z,12.28
2023-03-12T19:50:02.324Z,12.38
2023-03-12T19:52:30.016Z,12.28
2023-03-12T19:55:04.705Z,12.19
2023-03-12T19:57:34.088Z,12.17
2023-03-12T20:00:01.425Z,12.07
2023-03-12T20:02:31.540Z,12.09
2023-03-12T20:04:58.656Z,11.97
2023-03-12T20:07:25.767Z,11.94
2023-03-12T20:09:52.786Z,11.89
2023-03-12T20:12:19.934Z,11.77
2023-03-12T20:14:47.416Z,11.50
2023-03-12T20:17:15.405Z,11.52
2023-03-12T20:19:42.642Z,11.50
2023-03-12T20:22:09.853Z,11.43
2023-03-12T20:24:37.097Z,11.49
2023-03-12T20:27:04.599Z,11.50
2023-03-12T20:29:31.725Z,11.49
2023-03-12T20:31:58.867Z,11.45
2023-03-12T20:34:25.997Z,11.41
2023-03-12T20:36:53.132Z,11.44
2023-03-12T20:39:20.324Z,11.43
2023-03-12T20:41:49.277Z,11.48
2023-03-12T20:44:16.899Z,11.40
2023-03-12T20:46:44.444Z,11.33
2023-03-12T20:49:11.552Z,11.41
2023-03-12T20:51:38.605Z,11.38
2023-03-12T20:54:06.035Z,11.36
2023-03-12T20:56:33.050Z,11.37
2023-03-12T20:59:00.051Z,11.27
2023-03-12T21:01:27.664Z,11.30
2023-03-12T21:03:58.747Z,11.29
2023-03-12T21:06:26.776Z,11.27
2023-03-12T21:08:59.840Z,10.93
2023-03-12T21:11:26.918Z,10.88
2023-03-12T21:13:54.189Z,10.99
2023-03-12T21:16:21.369Z,10.86
2023-03-12T21:18:48.692Z,11.04
2023-03-12T21:21:16.061Z,11.05
2023-03-12T21:23:43.316Z,10.96
2023-03-12T21:26:11.805Z,10.96
2023-03-12T21:28:38.916Z,11.03
2023-03-12T21:31:13.576Z,11.07
2023-03-12T21:33:41.096Z,11.04
2023-03-12T21:36:11.788Z,11.04
2023-03-12T21:38:40.517Z,10.89
2023-03-12T21:41:10.763Z,10.87
2023-03-12T21:43:38.816Z,10.88
2023-03-12T21:46:08.631Z,10.85
2023-03-12T21:48:36.254Z,10.86
2023-03-12T21:51:09.836Z,10.78
2023-03-12T21:53:37.408Z,10.74
2023-03-12T21:56:07.238Z,10.79
2023-03-12T21:58:35.260Z,10.69
2023-03-12T22:01:14.554Z,10.63
2023-03-12T22:03:43.464Z,10.60
2023-03-12T22:06:12.108Z,10.57
2023-03-12T22:08:39.514Z,10.49
2023-03-12T22:11:08.062Z,10.38
2023-03-12T22:13:35.479Z,10.46
2023-03-12T22:16:07.605Z,10.39
2023-03-12T22:18:40.765Z,10.38
2023-03-12T22:21:08.904Z,10.31
2023-03-12T22:23:36.865Z,10.32
2023-03-12T22:26:06.171Z,10.28
2023-03-12T22:28:34.195Z,10.19
2023-03-12T22:31:05.039Z,10.14
2023-03-12T22:33:33.758Z,10.09
2023-03-12T22:36:07.049Z,10.07
2023-03-12T22:38:36.573Z,10.04
2023-03-12T22:41:22.032Z,10.07
2023-03-12T22:43:51.539Z,10.05
2023-03-12T22:46:21.311Z,9.98
2023-03-12T22:48:54.535Z,9.97
2023-03-12T22:51:22.852Z,9.96
2023-03-12T22:53:50.305Z,9.90
2023-03-12T22:56:18.027Z,9.83
2023-03-12T22:58:45.647Z,9.84
2023-03-12T23:01:19.841Z,9.85
2023-03-12T23:03:47.814Z,9.85
2023-03-12T23:06:23.753Z,9.75
2023-03-12T23:08:51.938Z,9.72
2023-03-12T23:11:20.863Z,9.72
2023-03-12T23:13:49.606Z,9.72
2023-03-12T23:16:24.407Z,9.71
2023-03-12T23:18:51.537Z,9.76
2023-03-12T23:21:22.093Z,9.66
2023-03-12T23:23:50.009Z,9.57
2023-03-12T23:26:27.205Z,9.56
2023-03-12T23:28:56.019Z,9.52
2023-03-12T23:31:27.933Z,9.45
2023-03-12T23:33:57.054Z,9.44
2023-03-12T23:36:24.812Z,9.41
2023-03-12T23:38:51.942Z,9.40
2023-03-12T23:41:25.404Z,9.41
2023-03-12T23:43:52.997Z,9.38
2023-03-12T23:46:20.658Z,9.38
2023-03-12T23:48:48.022Z,9.32
2023-03-12T23:51:33.998Z,9.33
2023-03-12T23:54:05.325Z,9.33
2023-03-12T23:56:36.819Z,9.35
2023-03-12T23:59:06.003Z,9.38
